sensor_id;sensor_type;location;lat;lon;timestamp;P1;durP1;ratioP1;P2;durP2;ratioP2
24143;SDS011;12307;50.828;6.080;2022-12-13T00:01:08;5.22;;;3.83;;
24143;SDS011;12307;50.828;6.080;2022-12-13T00:03:34;5.25;;;3.72;;
24143;SDS011;12307;50.828;6.080;2022-12-13T00:06:03;4.72;;;3.72;;
24143;SDS011;12307;50.828;6.080;2022-12-13T00:08:29;5.07;;;3.75;;
24143;SDS011;12307;50.828;6.080;2022-12-13T00:10:57;5.50;;;3.70;;
24143;SDS011;12307;50.828;6.080;2022-12-13T00:13:23;4.88;;;3.83;;
24143;SDS011;12307;50.828;6.080;2022-12-13T00:15:55;4.53;;;3.80;;
24143;SDS011;12307;50.828;6.080;2022-12-13T00:18:21;5.40;;;3.92;;
24143;SDS011;12307;50.828;6.080;2022-12-13T00:20:47;5.32;;;3.92;;
24143;SDS011;12307;50.828;6.080;2022-12-13T00:23:13;5.13;;;3.72;;
24143;SDS011;12307;50.828;6.080;2022-12-13T00:25:38;4.78;;;3.63;;
24143;SDS011;12307;50.828;6.080;2022-12-13T00:28:04;4.97;;;3.78;;
24143;SDS011;12307;50.828;6.080;2022-12-13T00:30:30;4.68;;;3.72;;
24143;SDS011;12307;50.828;6.080;2022-12-13T00:32:57;5.45;;;3.72;;
24143;SDS011;12307;50.828;6.080;2022-12-13T00:35:23;4.65;;;3.65;;
24143;SDS011;12307;50.828;6.080;2022-12-13T00:37:48;5.32;;;3.97;;
24143;SDS011;12307;50.828;6.080;2022-12-13T00:40:14;4.82;;;3.65;;
24143;SDS011;12307;50.828;6.080;2022-12-13T00:42:40;4.03;;;3.25;;
24143;SDS011;12307;50.828;6.080;2022-12-13T00:45:06;5.80;;;3.90;;
24143;SDS011;12307;50.828;6.080;2022-12-13T00:47:33;4.63;;;3.50;;
24143;SDS011;12307;50.828;6.080;2022-12-13T00:50:00;4.90;;;3.78;;
24143;SDS011;12307;50.828;6.080;2022-12-13T00:52:26;4.78;;;3.80;;
24143;SDS011;12307;50.828;6.080;2022-12-13T00:54:52;4.88;;;3.83;;
24143;SDS011;12307;50.828;6.080;2022-12-13T00:57:17;5.03;;;3.80;;
24143;SDS011;12307;50.828;6.080;2022-12-13T00:59:43;5.03;;;3.88;;
24143;SDS011;12307;50.828;6.080;2022-12-13T01:02:09;4.78;;;3.58;;
24143;SDS011;12307;50.828;6.080;2022-12-13T01:04:34;4.55;;;3.60;;
24143;SDS011;12307;50.828;6.080;2022-12-13T01:07:01;5.35;;;3.80;;
24143;SDS011;12307;50.828;6.080;2022-12-13T01:09:27;4.65;;;3.42;;
24143;SDS011;12307;50.828;6.080;2022-12-13T01:11:55;5.40;;;4.10;;
24143;SDS011;12307;50.828;6.080;2022-12-13T01:14:21;5.22;;;3.72;;
24143;SDS011;12307;50.828;6.080;2022-12-13T01:16:47;3.58;;;3.25;;
24143;SDS011;12307;50.828;6.080;2022-12-13T01:19:13;3.95;;;3.28;;
24143;SDS011;12307;50.828;6.080;2022-12-13T01:21:38;5.60;;;4.00;;
24143;SDS011;12307;50.828;6.080;2022-12-13T01:24:06;5.95;;;3.92;;
24143;SDS011;12307;50.828;6.080;2022-12-13T01:26:32;5.13;;;3.90;;
24143;SDS011;12307;50.828;6.080;2022-12-13T01:28:58;4.53;;;3.60;;
24143;SDS011;12307;50.828;6.080;2022-12-13T01:31:24;5.35;;;3.58;;
24143;SDS011;12307;50.828;6.080;2022-12-13T01:33:50;4.07;;;3.55;;
24143;SDS011;12307;50.828;6.080;2022-12-13T01:36:16;5.00;;;3.60;;
24143;SDS011;12307;50.828;6.080;2022-12-13T01:38:43;4.20;;;3.42;;
24143;SDS011;12307;50.828;6.080;2022-12-13T01:41:11;4.25;;;3.70;;
24143;SDS011;12307;50.828;6.080;2022-12-13T01:43:49;4.25;;;3.50;;
24143;SDS011;12307;50.828;6.080;2022-12-13T01:46:17;4.18;;;3.42;;
24143;SDS011;12307;50.828;6.080;2022-12-13T01:48:43;5.10;;;3.72;;
24143;SDS011;12307;50.828;6.080;2022-12-13T01:51:11;5.60;;;3.83;;
24143;SDS011;12307;50.828;6.080;2022-12-13T01:53:41;5.28;;;3.75;;
24143;SDS011;12307;50.828;6.080;2022-12-13T01:56:11;4.85;;;3.53;;
24143;SDS011;12307;50.828;6.080;2022-12-13T01:58:42;4.60;;;3.47;;
24143;SDS011;12307;50.828;6.080;2022-12-13T02:01:08;5.43;;;3.70;;
24143;SDS011;12307;50.828;6.080;2022-12-13T02:03:34;4.32;;;3.38;;
24143;SDS011;12307;50.828;6.080;2022-12-13T02:06:02;4.35;;;3.78;;
24143;SDS011;12307;50.828;6.080;2022-12-13T02:08:32;4.95;;;3.58;;
24143;SDS011;12307;50.828;6.080;2022-12-13T02:10:58;4.30;;;3.50;;
24143;SDS011;12307;50.828;6.080;2022-12-13T02:13:26;4.80;;;3.63;;
24143;SDS011;12307;50.828;6.080;2022-12-13T02:15:53;4.13;;;3.50;;
24143;SDS011;12307;50.828;6.080;2022-12-13T02:18:25;4.93;;;3.50;;
24143;SDS011;12307;50.828;6.080;2022-12-13T02:21:07;5.03;;;3.70;;
24143;SDS011;12307;50.828;6.080;2022-12-13T02:26:45;5.00;;;3.75;;
24143;SDS011;12307;50.828;6.080;2022-12-13T02:29:25;4.38;;;3.70;;
24143;SDS011;12307;50.828;6.080;2022-12-13T02:32:09;4.95;;;3.40;;
24143;SDS011;12307;50.828;6.080;2022-12-13T02:34:43;4.90;;;3.70;;
24143;SDS011;12307;50.828;6.080;2022-12-13T02:37:14;4.43;;;3.33;;
24143;SDS011;12307;50.828;6.080;2022-12-13T02:39:47;4.05;;;3.20;;
24143;SDS011;12307;50.828;6.080;2022-12-13T02:42:21;4.13;;;3.40;;
24143;SDS011;12307;50.828;6.080;2022-12-13T02:44:53;4.90;;;3.70;;
24143;SDS011;12307;50.828;6.080;2022-12-13T02:47:23;5.78;;;3.53;;
24143;SDS011;12307;50.828;6.080;2022-12-13T02:49:53;4.13;;;3.47;;
24143;SDS011;12307;50.828;6.080;2022-12-13T02:52:23;4.70;;;3.67;;
24143;SDS011;12307;50.828;6.080;2022-12-13T02:54:52;4.78;;;3.72;;
24143;SDS011;12307;50.828;6.080;2022-12-13T02:57:26;5.25;;;3.65;;
24143;SDS011;12307;50.828;6.080;2022-12-13T02:59:53;4.10;;;3.10;;
24143;SDS011;12307;50.828;6.080;2022-12-13T03:02:23;4.50;;;3.60;;
24143;SDS011;12307;50.828;6.080;2022-12-13T03:04:58;4.25;;;3.50;;
24143;SDS011;12307;50.828;6.080;2022-12-13T03:07:54;4.53;;;3.60;;
24143;SDS011;12307;50.828;6.080;2022-12-13T03:10:28;4.28;;;3.35;;
24143;SDS011;12307;50.828;6.080;2022-12-13T03:12:58;4.00;;;3.47;;
24143;SDS011;12307;50.828;6.080;2022-12-13T03:15:52;3.70;;;3.22;;
24143;SDS011;12307;50.828;6.080;2022-12-13T03:18:23;3.60;;;3.15;;
24143;SDS011;12307;50.828;6.080;2022-12-13T03:20:51;4.22;;;3.47;;
24143;SDS011;12307;50.828;6.080;2022-12-13T03:23:19;4.05;;;3.42;;
24143;SDS011;12307;50.828;6.080;2022-12-13T03:25:45;4.47;;;3.53;;
24143;SDS011;12307;50.828;6.080;2022-12-13T03:28:13;4.97;;;3.55;;
24143;SDS011;12307;50.828;6.080;2022-12-13T03:30:39;3.90;;;3.47;;
24143;SDS011;12307;50.828;6.080;2022-12-13T03:33:05;3.70;;;3.10;;
24143;SDS011;12307;50.828;6.080;2022-12-13T03:35:32;4.10;;;3.42;;
24143;SDS011;12307;50.828;6.080;2022-12-13T03:37:58;4.38;;;3.47;;
24143;SDS011;12307;50.828;6.080;2022-12-13T03:40:26;3.65;;;3.30;;
24143;SDS011;12307;50.828;6.080;2022-12-13T03:42:52;4.50;;;3.40;;
24143;SDS011;12307;50.828;6.080;2022-12-13T03:45:18;4.32;;;3.50;;
24143;SDS011;12307;50.828;6.080;2022-12-13T03:47:44;4.90;;;3.83;;
24143;SDS011;12307;50.828;6.080;2022-12-13T03:50:10;3.85;;;3.40;;
24143;SDS011;12307;50.828;6.080;2022-12-13T03:52:37;3.60;;;3.30;;
24143;SDS011;12307;50.828;6.080;2022-12-13T03:55:03;4.20;;;3.35;;
24143;SDS011;12307;50.828;6.080;2022-12-13T03:57:29;4.70;;;3.60;;
24143;SDS011;12307;50.828;6.080;2022-12-13T03:59:55;4.07;;;3.33;;
24143;SDS011;12307;50.828;6.080;2022-12-13T04:02:21;4.35;;;3.40;;
24143;SDS011;12307;50.828;6.080;2022-12-13T04:04:46;4.38;;;3.30;;
24143;SDS011;12307;50.828;6.080;2022-12-13T04:07:12;4.32;;;3.42;;
24143;SDS011;12307;50.828;6.080;2022-12-13T04:09:39;4.03;;;3.20;;
24143;SDS011;12307;50.828;6.080;2022-12-13T04:12:05;4.07;;;3.50;;
24143;SDS011;12307;50.828;6.080;2022-12-13T04:14:49;4.15;;;3.42;;
24143;SDS011;12307;50.828;6.080;2022-12-13T04:17:15;3.90;;;3.50;;
24143;SDS011;12307;50.828;6.080;2022-12-13T04:19:40;4.93;;;3.70;;
24143;SDS011;12307;50.828;6.080;2022-12-13T04:22:06;3.88;;;3.40;;
24143;SDS011;12307;50.828;6.080;2022-12-13T04:24:32;4.72;;;3.45;;
24143;SDS011;12307;50.828;6.080;2022-12-13T04:26:59;4.65;;;3.35;;
24143;SDS011;12307;50.828;6.080;2022-12-13T04:29:25;4.75;;;3.58;;
24143;SDS011;12307;50.828;6.080;2022-12-13T04:31:51;3.78;;;3.15;;
24143;SDS011;12307;50.828;6.080;2022-12-13T04:34:16;3.92;;;3.30;;
24143;SDS011;12307;50.828;6.080;2022-12-13T04:36:42;3.95;;;3.17;;
24143;SDS011;12307;50.828;6.080;2022-12-13T04:39:08;4.72;;;3.45;;
24143;SDS011;12307;50.828;6.080;2022-12-13T04:41:34;4.15;;;3.28;;
24143;SDS011;12307;50.828;6.080;2022-12-13T04:44:02;4.85;;;3.40;;
24143;SDS011;12307;50.828;6.080;2022-12-13T04:46:28;4.65;;;3.72;;
24143;SDS011;12307;50.828;6.080;2022-12-13T04:48:54;4.40;;;3.60;;
24143;SDS011;12307;50.828;6.080;2022-12-13T04:51:20;4.22;;;3.47;;
24143;SDS011;12307;50.828;6.080;2022-12-13T04:53:45;4.00;;;3.60;;
24143;SDS011;12307;50.828;6.080;2022-12-13T04:56:11;4.45;;;3.38;;
24143;SDS011;12307;50.828;6.080;2022-12-13T04:58:37;5.28;;;3.63;;
24143;SDS011;12307;50.828;6.080;2022-12-13T05:01:06;4.43;;;3.58;;
24143;SDS011;12307;50.828;6.080;2022-12-13T05:03:32;3.83;;;3.33;;
24143;SDS011;12307;50.828;6.080;2022-12-13T05:05:58;4.40;;;3.58;;
24143;SDS011;12307;50.828;6.080;2022-12-13T05:08:23;4.10;;;3.22;;
24143;SDS011;12307;50.828;6.080;2022-12-13T05:10:49;4.55;;;3.78;;
24143;SDS011;12307;50.828;6.080;2022-12-13T05:13:15;3.92;;;3.30;;
24143;SDS011;12307;50.828;6.080;2022-12-13T05:15:41;5.15;;;3.85;;
24143;SDS011;12307;50.828;6.080;2022-12-13T05:18:08;5.03;;;3.60;;
24143;SDS011;12307;50.828;6.080;2022-12-13T05:20:34;4.90;;;3.70;;
24143;SDS011;12307;50.828;6.080;2022-12-13T05:23:00;4.03;;;3.42;;
24143;SDS011;12307;50.828;6.080;2022-12-13T05:25:26;4.50;;;3.40;;
24143;SDS011;12307;50.828;6.080;2022-12-13T05:27:52;3.88;;;3.30;;
24143;SDS011;12307;50.828;6.080;2022-12-13T05:30:18;4.95;;;3.83;;
24143;SDS011;12307;50.828;6.080;2022-12-13T05:32:44;4.60;;;3.40;;
24143;SDS011;12307;50.828;6.080;2022-12-13T05:35:11;4.50;;;3.40;;
24143;SDS011;12307;50.828;6.080;2022-12-13T05:37:38;4.75;;;3.75;;
24143;SDS011;12307;50.828;6.080;2022-12-13T05:40:04;5.38;;;3.67;;
24143;SDS011;12307;50.828;6.080;2022-12-13T05:42:30;4.85;;;3.80;;
24143;SDS011;12307;50.828;6.080;2022-12-13T05:44:56;4.65;;;3.30;;
24143;SDS011;12307;50.828;6.080;2022-12-13T05:47:22;4.28;;;3.50;;
24143;SDS011;12307;50.828;6.080;2022-12-13T05:49:47;4.13;;;3.33;;
24143;SDS011;12307;50.828;6.080;2022-12-13T05:52:16;4.78;;;3.80;;
24143;SDS011;12307;50.828;6.080;2022-12-13T05:54:42;4.70;;;3.65;;
24143;SDS011;12307;50.828;6.080;2022-12-13T05:57:08;4.50;;;3.38;;
24143;SDS011;12307;50.828;6.080;2022-12-13T05:59:33;3.80;;;3.40;;
24143;SDS011;12307;50.828;6.080;2022-12-13T06:01:59;4.85;;;3.90;;
24143;SDS011;12307;50.828;6.080;2022-12-13T06:04:25;4.57;;;3.80;;
24143;SDS011;12307;50.828;6.080;2022-12-13T06:06:51;4.00;;;3.50;;
24143;SDS011;12307;50.828;6.080;2022-12-13T06:09:18;4.32;;;3.63;;
24143;SDS011;12307;50.828;6.080;2022-12-13T06:11:44;4.97;;;3.67;;
24143;SDS011;12307;50.828;6.080;2022-12-13T06:14:10;4.15;;;3.35;;
24143;SDS011;12307;50.828;6.080;2022-12-13T06:16:36;4.97;;;3.70;;
24143;SDS011;12307;50.828;6.080;2022-12-13T06:19:01;4.25;;;3.55;;
24143;SDS011;12307;50.828;6.080;2022-12-13T06:21:27;4.63;;;3.67;;
24143;SDS011;12307;50.828;6.080;2022-12-13T06:23:53;4.78;;;3.80;;
24143;SDS011;12307;50.828;6.080;2022-12-13T06:26:20;4.50;;;3.58;;
24143;SDS011;12307;50.828;6.080;2022-12-13T06:28:46;4.30;;;3.78;;
24143;SDS011;12307;50.828;6.080;2022-12-13T06:31:11;4.43;;;3.47;;
24143;SDS011;12307;50.828;6.080;2022-12-13T06:33:37;5.55;;;4.18;;
24143;SDS011;12307;50.828;6.080;2022-12-13T06:36:03;5.55;;;4.00;;
24143;SDS011;12307;50.828;6.080;2022-12-13T06:38:29;4.95;;;3.50;;
24143;SDS011;12307;50.828;6.080;2022-12-13T06:41:04;4.22;;;3.60;;
24143;SDS011;12307;50.828;6.080;2022-12-13T06:43:32;4.30;;;3.47;;
24143;SDS011;12307;50.828;6.080;2022-12-13T06:45:57;4.85;;;4.00;;
24143;SDS011;12307;50.828;6.080;2022-12-13T06:48:23;4.60;;;3.92;;
24143;SDS011;12307;50.828;6.080;2022-12-13T06:50:50;4.85;;;3.85;;
24143;SDS011;12307;50.828;6.080;2022-12-13T06:53:15;4.45;;;3.58;;
24143;SDS011;12307;50.828;6.080;2022-12-13T06:55:41;4.82;;;3.58;;
24143;SDS011;12307;50.828;6.080;2022-12-13T06:58:07;4.97;;;3.95;;
24143;SDS011;12307;50.828;6.080;2022-12-13T07:00:34;5.32;;;4.20;;
24143;SDS011;12307;50.828;6.080;2022-12-13T07:02:59;4.88;;;4.05;;
24143;SDS011;12307;50.828;6.080;2022-12-13T07:05:25;5.32;;;3.92;;
24143;SDS011;12307;50.828;6.080;2022-12-13T07:07:51;5.70;;;4.18;;
24143;SDS011;12307;50.828;6.080;2022-12-13T07:10:18;4.60;;;3.75;;
24143;SDS011;12307;50.828;6.080;2022-12-13T07:12:44;5.53;;;3.97;;
24143;SDS011;12307;50.828;6.080;2022-12-13T07:15:09;4.57;;;4.00;;
24143;SDS011;12307;50.828;6.080;2022-12-13T07:17:37;4.68;;;3.80;;
24143;SDS011;12307;50.828;6.080;2022-12-13T07:20:03;5.50;;;3.97;;
24143;SDS011;12307;50.828;6.080;2022-12-13T07:22:34;5.38;;;4.18;;
24143;SDS011;12307;50.828;6.080;2022-12-13T07:25:01;4.40;;;3.53;;
24143;SDS011;12307;50.828;6.080;2022-12-13T07:27:27;5.72;;;4.30;;
24143;SDS011;12307;50.828;6.080;2022-12-13T07:29:53;5.80;;;4.25;;
24143;SDS011;12307;50.828;6.080;2022-12-13T07:32:19;6.47;;;4.40;;
24143;SDS011;12307;50.828;6.080;2022-12-13T07:34:46;5.32;;;4.25;;
24143;SDS011;12307;50.828;6.080;2022-12-13T07:37:11;5.75;;;4.30;;
24143;SDS011;12307;50.828;6.080;2022-12-13T07:39:37;4.82;;;4.00;;
24143;SDS011;12307;50.828;6.080;2022-12-13T07:42:03;6.20;;;4.55;;
24143;SDS011;12307;50.828;6.080;2022-12-13T07:44:28;5.82;;;4.53;;
24143;SDS011;12307;50.828;6.080;2022-12-13T07:46:54;4.85;;;4.22;;
24143;SDS011;12307;50.828;6.080;2022-12-13T07:49:20;5.20;;;4.25;;
24143;SDS011;12307;50.828;6.080;2022-12-13T07:51:47;5.15;;;4.35;;
24143;SDS011;12307;50.828;6.080;2022-12-13T07:54:13;5.38;;;4.30;;
24143;SDS011;12307;50.828;6.080;2022-12-13T07:56:38;5.57;;;4.50;;
24143;SDS011;12307;50.828;6.080;2022-12-13T07:59:04;5.05;;;4.13;;
24143;SDS011;12307;50.828;6.080;2022-12-13T08:01:30;5.20;;;4.07;;
24143;SDS011;12307;50.828;6.080;2022-12-13T08:03:58;5.65;;;4.85;;
24143;SDS011;12307;50.828;6.080;2022-12-13T08:06:24;5.03;;;4.05;;
24143;SDS011;12307;50.828;6.080;2022-12-13T08:08:53;5.50;;;4.50;;
24143;SDS011;12307;50.828;6.080;2022-12-13T08:11:19;5.55;;;4.35;;
24143;SDS011;12307;50.828;6.080;2022-12-13T08:13:45;5.82;;;4.60;;
24143;SDS011;12307;50.828;6.080;2022-12-13T08:16:11;5.13;;;4.22;;
24143;SDS011;12307;50.828;6.080;2022-12-13T08:18:39;6.03;;;4.70;;
24143;SDS011;12307;50.828;6.080;2022-12-13T08:21:05;6.10;;;4.30;;
24143;SDS011;12307;50.828;6.080;2022-12-13T08:23:33;5.68;;;4.20;;
24143;SDS011;12307;50.828;6.080;2022-12-13T08:26:00;4.68;;;3.92;;
24143;SDS011;12307;50.828;6.080;2022-12-13T08:28:28;5.95;;;4.65;;
24143;SDS011;12307;50.828;6.080;2022-12-13T08:30:54;5.97;;;4.50;;
24143;SDS011;12307;50.828;6.080;2022-12-13T08:33:20;5.25;;;4.60;;
24143;SDS011;12307;50.828;6.080;2022-12-13T08:35:46;6.65;;;4.72;;
24143;SDS011;12307;50.828;6.080;2022-12-13T08:38:12;5.88;;;4.60;;
24143;SDS011;12307;50.828;6.080;2022-12-13T08:40:38;6.00;;;4.63;;
24143;SDS011;12307;50.828;6.080;2022-12-13T08:43:05;6.90;;;4.70;;
24143;SDS011;12307;50.828;6.080;2022-12-13T08:45:31;6.18;;;4.80;;
24143;SDS011;12307;50.828;6.080;2022-12-13T08:47:58;6.90;;;4.68;;
24143;SDS011;12307;50.828;6.080;2022-12-13T08:50:25;5.22;;;4.22;;
24143;SDS011;12307;50.828;6.080;2022-12-13T08:52:51;6.28;;;4.88;;
24143;SDS011;12307;50.828;6.080;2022-12-13T08:55:17;6.53;;;4.75;;
24143;SDS011;12307;50.828;6.080;2022-12-13T08:57:43;5.50;;;4.20;;
24143;SDS011;12307;50.828;6.080;2022-12-13T09:00:11;5.57;;;4.07;;
24143;SDS011;12307;50.828;6.080;2022-12-13T09:02:39;7.05;;;4.40;;
24143;SDS011;12307;50.828;6.080;2022-12-13T09:05:05;6.03;;;4.90;;
24143;SDS011;12307;50.828;6.080;2022-12-13T09:07:32;6.05;;;5.03;;
24143;SDS011;12307;50.828;6.080;2022-12-13T09:09:59;7.40;;;5.07;;
24143;SDS011;12307;50.828;6.080;2022-12-13T09:12:25;6.50;;;4.75;;
24143;SDS011;12307;50.828;6.080;2022-12-13T09:14:51;6.13;;;4.70;;
24143;SDS011;12307;50.828;6.080;2022-12-13T09:17:18;5.32;;;4.53;;
24143;SDS011;12307;50.828;6.080;2022-12-13T09:19:43;6.95;;;4.72;;
24143;SDS011;12307;50.828;6.080;2022-12-13T09:22:10;6.13;;;4.90;;
24143;SDS011;12307;50.828;6.080;2022-12-13T09:24:36;5.72;;;4.50;;
24143;SDS011;12307;50.828;6.080;2022-12-13T09:27:02;5.13;;;4.10;;
24143;SDS011;12307;50.828;6.080;2022-12-13T09:29:28;5.78;;;4.60;;
24143;SDS011;12307;50.828;6.080;2022-12-13T09:31:54;6.15;;;4.78;;
24143;SDS011;12307;50.828;6.080;2022-12-13T09:34:21;7.40;;;4.70;;
24143;SDS011;12307;50.828;6.080;2022-12-13T09:36:46;6.28;;;4.85;;
24143;SDS011;12307;50.828;6.080;2022-12-13T09:39:12;5.90;;;4.60;;
24143;SDS011;12307;50.828;6.080;2022-12-13T09:41:38;5.10;;;4.30;;
24143;SDS011;12307;50.828;6.080;2022-12-13T09:44:10;6.18;;;4.70;;
24143;SDS011;12307;50.828;6.080;2022-12-13T09:46:41;5.70;;;4.63;;
24143;SDS011;12307;50.828;6.080;2022-12-13T09:49:10;5.40;;;4.40;;
24143;SDS011;12307;50.828;6.080;2022-12-13T09:51:42;5.65;;;4.85;;
24143;SDS011;12307;50.828;6.080;2022-12-13T09:54:14;5.90;;;4.28;;
24143;SDS011;12307;50.828;6.080;2022-12-13T09:56:42;5.95;;;4.40;;
24143;SDS011;12307;50.828;6.080;2022-12-13T09:59:10;5.22;;;4.35;;
24143;SDS011;12307;50.828;6.080;2022-12-13T10:01:38;6.13;;;4.75;;
24143;SDS011;12307;50.828;6.080;2022-12-13T10:04:06;6.65;;;5.28;;
24143;SDS011;12307;50.828;6.080;2022-12-13T10:06:37;6.10;;;4.70;;
24143;SDS011;12307;50.828;6.080;2022-12-13T10:09:04;8.07;;;5.57;;
24143;SDS011;12307;50.828;6.080;2022-12-13T10:11:35;6.05;;;4.80;;
24143;SDS011;12307;50.828;6.080;2022-12-13T10:14:01;7.82;;;5.43;;
24143;SDS011;12307;50.828;6.080;2022-12-13T10:16:32;6.35;;;5.10;;
24143;SDS011;12307;50.828;6.080;2022-12-13T10:19:11;5.25;;;4.70;;
24143;SDS011;12307;50.828;6.080;2022-12-13T10:21:41;5.75;;;4.82;;
24143;SDS011;12307;50.828;6.080;2022-12-13T10:24:12;6.97;;;5.10;;
24143;SDS011;12307;50.828;6.080;2022-12-13T10:26:40;5.97;;;4.47;;
24143;SDS011;12307;50.828;6.080;2022-12-13T10:29:06;7.10;;;5.00;;
24143;SDS011;12307;50.828;6.080;2022-12-13T10:31:37;6.15;;;4.68;;
24143;SDS011;12307;50.828;6.080;2022-12-13T10:34:05;5.53;;;4.20;;
24143;SDS011;12307;50.828;6.080;2022-12-13T10:36:44;5.38;;;4.57;;
24143;SDS011;12307;50.828;6.080;2022-12-13T10:39:14;6.20;;;4.97;;
24143;SDS011;12307;50.828;6.080;2022-12-13T10:41:42;6.90;;;5.10;;
24143;SDS011;12307;50.828;6.080;2022-12-13T10:44:13;5.85;;;4.85;;
24143;SDS011;12307;50.828;6.080;2022-12-13T10:46:46;6.15;;;4.78;;
24143;SDS011;12307;50.828;6.080;2022-12-13T10:49:14;6.45;;;4.57;;
24143;SDS011;12307;50.828;6.080;2022-12-13T10:51:42;8.05;;;5.32;;
24143;SDS011;12307;50.828;6.080;2022-12-13T10:54:10;6.40;;;4.57;;
24143;SDS011;12307;50.828;6.080;2022-12-13T10:56:44;6.47;;;5.28;;
24143;SDS011;12307;50.828;6.080;2022-12-13T10:59:20;5.97;;;4.85;;
24143;SDS011;12307;50.828;6.080;2022-12-13T11:01:49;6.88;;;5.10;;
24143;SDS011;12307;50.828;6.080;2022-12-13T11:04:19;6.57;;;5.00;;
24143;SDS011;12307;50.828;6.080;2022-12-13T11:06:47;6.53;;;5.45;;
24143;SDS011;12307;50.828;6.080;2022-12-13T11:09:14;5.10;;;4.43;;
24143;SDS011;12307;50.828;6.080;2022-12-13T11:11:48;6.88;;;4.95;;
24143;SDS011;12307;50.828;6.080;2022-12-13T11:14:15;5.15;;;4.30;;
24143;SDS011;12307;50.828;6.080;2022-12-13T11:16:43;7.88;;;4.90;;
24143;SDS011;12307;50.828;6.080;2022-12-13T11:19:15;6.20;;;4.93;;
24143;SDS011;12307;50.828;6.080;2022-12-13T11:21:45;5.78;;;4.65;;
24143;SDS011;12307;50.828;6.080;2022-12-13T11:24:14;6.25;;;5.00;;
24143;SDS011;12307;50.828;6.080;2022-12-13T11:26:45;7.75;;;4.78;;
24143;SDS011;12307;50.828;6.080;2022-12-13T11:29:26;6.10;;;5.05;;
24143;SDS011;12307;50.828;6.080;2022-12-13T11:32:02;6.13;;;4.88;;
24143;SDS011;12307;50.828;6.080;2022-12-13T11:34:41;5.72;;;4.32;;
24143;SDS011;12307;50.828;6.080;2022-12-13T11:37:15;5.72;;;5.00;;
24143;SDS011;12307;50.828;6.080;2022-12-13T11:39:48;6.28;;;4.80;;
24143;SDS011;12307;50.828;6.080;2022-12-13T11:42:20;5.75;;;4.45;;
24143;SDS011;12307;50.828;6.080;2022-12-13T11:44:54;5.95;;;4.65;;
24143;SDS011;12307;50.828;6.080;2022-12-13T11:47:28;7.70;;;4.78;;
24143;SDS011;12307;50.828;6.080;2022-12-13T11:49:59;5.85;;;5.00;;
24143;SDS011;12307;50.828;6.080;2022-12-13T11:52:29;5.57;;;4.90;;
24143;SDS011;12307;50.828;6.080;2022-12-13T11:55:02;5.50;;;4.57;;
24143;SDS011;12307;50.828;6.080;2022-12-13T11:57:34;8.98;;;4.75;;
24143;SDS011;12307;50.828;6.080;2022-12-13T12:00:09;5.60;;;4.35;;
24143;SDS011;12307;50.828;6.080;2022-12-13T12:02:48;5.88;;;4.60;;
24143;SDS011;12307;50.828;6.080;2022-12-13T12:05:21;5.38;;;4.47;;
24143;SDS011;12307;50.828;6.080;2022-12-13T12:07:53;6.25;;;4.75;;
24143;SDS011;12307;50.828;6.080;2022-12-13T12:10:26;5.32;;;4.53;;
24143;SDS011;12307;50.828;6.080;2022-12-13T12:12:57;5.43;;;4.80;;
24143;SDS011;12307;50.828;6.080;2022-12-13T12:15:30;5.45;;;4.63;;
24143;SDS011;12307;50.828;6.080;2022-12-13T12:17:59;6.57;;;4.55;;
24143;SDS011;12307;50.828;6.080;2022-12-13T12:20:26;5.72;;;4.35;;
24143;SDS011;12307;50.828;6.080;2022-12-13T12:23:04;5.18;;;4.38;;
24143;SDS011;12307;50.828;6.080;2022-12-13T12:25:41;5.47;;;4.38;;
24143;SDS011;12307;50.828;6.080;2022-12-13T12:28:13;5.95;;;4.38;;
24143;SDS011;12307;50.828;6.080;2022-12-13T12:30:49;4.80;;;4.18;;
24143;SDS011;12307;50.828;6.080;2022-12-13T12:33:21;6.30;;;4.60;;
24143;SDS011;12307;50.828;6.080;2022-12-13T12:36:01;4.95;;;4.45;;
24143;SDS011;12307;50.828;6.080;2022-12-13T12:38:45;5.25;;;4.50;;
24143;SDS011;12307;50.828;6.080;2022-12-13T12:41:34;6.30;;;4.65;;
24143;SDS011;12307;50.828;6.080;2022-12-13T12:44:15;5.80;;;4.53;;
24143;SDS011;12307;50.828;6.080;2022-12-13T12:46:52;5.50;;;4.65;;
24143;SDS011;12307;50.828;6.080;2022-12-13T12:49:39;6.05;;;4.97;;
24143;SDS011;12307;50.828;6.080;2022-12-13T12:52:43;6.38;;;4.93;;
24143;SDS011;12307;50.828;6.080;2022-12-13T12:55:18;6.30;;;4.40;;
24143;SDS011;12307;50.828;6.080;2022-12-13T12:57:53;6.45;;;4.68;;
24143;SDS011;12307;50.828;6.080;2022-12-13T13:00:23;10.23;;;5.25;;
24143;SDS011;12307;50.828;6.080;2022-12-13T13:02:54;6.38;;;4.53;;
24143;SDS011;12307;50.828;6.080;2022-12-13T13:05:25;6.82;;;5.07;;
24143;SDS011;12307;50.828;6.080;2022-12-13T13:07:58;5.35;;;4.40;;
24143;SDS011;12307;50.828;6.080;2022-12-13T13:10:28;8.48;;;5.05;;
24143;SDS011;12307;50.828;6.080;2022-12-13T13:12:55;6.25;;;4.57;;
24143;SDS011;12307;50.828;6.080;2022-12-13T13:21:23;7.60;;;4.82;;
24143;SDS011;12307;50.828;6.080;2022-12-13T13:24:05;4.88;;;4.25;;
24143;SDS011;12307;50.828;6.080;2022-12-13T13:26:39;5.53;;;4.40;;
24143;SDS011;12307;50.828;6.080;2022-12-13T13:29:20;6.40;;;4.18;;
24143;SDS011;12307;50.828;6.080;2022-12-13T13:32:05;6.47;;;4.80;;
24143;SDS011;12307;50.828;6.080;2022-12-13T13:34:48;5.85;;;4.32;;
24143;SDS011;12307;50.828;6.080;2022-12-13T13:37:25;4.45;;;4.05;;
24143;SDS011;12307;50.828;6.080;2022-12-13T13:39:54;5.35;;;4.70;;
24143;SDS011;12307;50.828;6.080;2022-12-13T13:42:24;6.43;;;5.00;;
24143;SDS011;12307;50.828;6.080;2022-12-13T13:47:42;6.63;;;4.68;;
24143;SDS011;12307;50.828;6.080;2022-12-13T13:53:21;7.35;;;4.60;;
24143;SDS011;12307;50.828;6.080;2022-12-13T13:56:19;5.28;;;4.45;;
24143;SDS011;12307;50.828;6.080;2022-12-13T13:59:04;6.03;;;4.60;;
24143;SDS011;12307;50.828;6.080;2022-12-13T14:02:10;6.30;;;4.32;;
24143;SDS011;12307;50.828;6.080;2022-12-13T14:08:19;5.18;;;4.30;;
24143;SDS011;12307;50.828;6.080;2022-12-13T14:11:10;5.90;;;4.30;;
24143;SDS011;12307;50.828;6.080;2022-12-13T14:17:09;6.28;;;4.65;;
24143;SDS011;12307;50.828;6.080;2022-12-13T14:23:15;5.75;;;4.22;;
24143;SDS011;12307;50.828;6.080;2022-12-13T14:26:01;5.90;;;4.57;;
24143;SDS011;12307;50.828;6.080;2022-12-13T14:28:40;5.85;;;4.43;;
24143;SDS011;12307;50.828;6.080;2022-12-13T14:31:12;6.18;;;4.25;;
24143;SDS011;12307;50.828;6.080;2022-12-13T14:33:42;4.47;;;4.05;;
24143;SDS011;12307;50.828;6.080;2022-12-13T14:36:12;4.88;;;4.22;;
24143;SDS011;12307;50.828;6.080;2022-12-13T14:38:41;5.25;;;4.55;;
24143;SDS011;12307;50.828;6.080;2022-12-13T14:41:12;4.80;;;4.30;;
24143;SDS011;12307;50.828;6.080;2022-12-13T14:43:40;5.47;;;4.40;;
24143;SDS011;12307;50.828;6.080;2022-12-13T14:46:06;5.35;;;4.25;;
24143;SDS011;12307;50.828;6.080;2022-12-13T14:48:33;5.25;;;4.45;;
24143;SDS011;12307;50.828;6.080;2022-12-13T14:51:00;5.32;;;4.47;;
24143;SDS011;12307;50.828;6.080;2022-12-13T14:53:27;6.28;;;4.38;;
24143;SDS011;12307;50.828;6.080;2022-12-13T14:56:02;6.68;;;4.45;;
24143;SDS011;12307;50.828;6.080;2022-12-13T14:58:30;5.85;;;4.57;;
24143;SDS011;12307;50.828;6.080;2022-12-13T15:00:56;5.75;;;4.55;;
24143;SDS011;12307;50.828;6.080;2022-12-13T15:03:22;6.63;;;4.57;;
24143;SDS011;12307;50.828;6.080;2022-12-13T15:05:50;5.47;;;4.20;;
24143;SDS011;12307;50.828;6.080;2022-12-13T15:08:18;6.00;;;4.50;;
24143;SDS011;12307;50.828;6.080;2022-12-13T15:10:45;6.63;;;4.55;;
24143;SDS011;12307;50.828;6.080;2022-12-13T15:13:19;4.68;;;4.10;;
24143;SDS011;12307;50.828;6.080;2022-12-13T15:15:53;5.13;;;4.05;;
24143;SDS011;12307;50.828;6.080;2022-12-13T15:18:21;5.95;;;4.32;;
24143;SDS011;12307;50.828;6.080;2022-12-13T15:20:48;5.07;;;3.95;;
24143;SDS011;12307;50.828;6.080;2022-12-13T15:23:18;6.15;;;4.63;;
24143;SDS011;12307;50.828;6.080;2022-12-13T15:25:48;4.68;;;3.88;;